MSR644 OEJN-HECA
Flight info
| Callsign | MSR644 |
|---|---|
| Flight time | N/A |
| Altitude | 36000 |
| Route | BOMOX M686 ALPOV DCT GIBAL DCT MOGAP DCT SOBEL DCT HGD DCT SOKOT DCT OBTAV |
| Aircraft | B738/M-SDE2E3FGHIRWXY/LB1 |
Departure
| Time | 2026-05-06 13:14 |
|---|---|
| Airport | King Abdulaziz International Airport (OEJN) |
Arrival
| Time | N/A |
|---|---|
| Airport | Cairo International Airport (HECA) |
| Time | Latitude | Longitude | Altitude | Speed | Heading |
|---|---|---|---|---|---|
| 2026-05-06 12:58 | 21.67011 | 39.17149 | 32 ft | 0 kts | 282° |
| 2026-05-06 13:11 | 21.67012 | 39.17147 | 32 ft | 3 kts | 294° |
| 2026-05-06 13:11 | 21.67028 | 39.17186 | 32 ft | 16 kts | 117° |
| 2026-05-06 13:11 | 21.66889 | 39.17287 | 32 ft | 34 kts | 167° |
| 2026-05-06 13:12 | 21.66666 | 39.17369 | 33 ft | 33 kts | 159° |
| 2026-05-06 13:12 | 21.66497 | 39.17510 | 33 ft | 31 kts | 107° |
| 2026-05-06 13:12 | 21.66535 | 39.17659 | 33 ft | 20 kts | 68° |
| 2026-05-06 13:12 | 21.66586 | 39.17797 | 34 ft | 19 kts | 72° |
| 2026-05-06 13:13 | 21.66629 | 39.17932 | 39 ft | 19 kts | 69° |
| 2026-05-06 13:13 | 21.66710 | 39.18020 | 45 ft | 18 kts | 355° |
| 2026-05-06 13:13 | 21.66888 | 39.17956 | 46 ft | 57 kts | 341° |
| 2026-05-06 13:13 | 21.67518 | 39.17710 | 43 ft | 133 kts | 340° |
| 2026-05-06 13:14 | 21.68536 | 39.17311 | 383 ft | 172 kts | 339° |
| 2026-05-06 13:14 | 21.69691 | 39.16856 | 1354 ft | 176 kts | 339° |
| 2026-05-06 13:14 | 21.70821 | 39.16410 | 2475 ft | 174 kts | 341° |
| 2026-05-06 13:14 | 21.72011 | 39.15941 | 3045 ft | 193 kts | 340° |
| 2026-05-06 13:15 | 21.73329 | 39.15421 | 3432 ft | 211 kts | 340° |
| 2026-05-06 13:15 | 21.74779 | 39.14851 | 3774 ft | 231 kts | 341° |
| 2026-05-06 13:15 | 21.76401 | 39.14654 | 4297 ft | 246 kts | 12° |
| 2026-05-06 13:15 | 21.77951 | 39.15515 | 4724 ft | 263 kts | 39° |
| 2026-05-06 13:16 | 21.79364 | 39.16844 | 5216 ft | 274 kts | 42° |
| 2026-05-06 13:16 | 21.80782 | 39.18242 | 5916 ft | 279 kts | 43° |
| 2026-05-06 13:16 | 21.82229 | 39.19648 | 6576 ft | 283 kts | 43° |
| 2026-05-06 13:16 | 21.83718 | 39.21069 | 7245 ft | 287 kts | 43° |
| 2026-05-06 13:17 | 21.85232 | 39.22495 | 7917 ft | 290 kts | 42° |
| 2026-05-06 13:17 | 21.86750 | 39.23914 | 8725 ft | 288 kts | 43° |
| 2026-05-06 13:17 | 21.88276 | 39.25336 | 9427 ft | 292 kts | 42° |
| 2026-05-06 13:17 | 21.89817 | 39.26776 | 10067 ft | 296 kts | 43° |
| 2026-05-06 13:18 | 21.91398 | 39.28252 | 10570 ft | 306 kts | 42° |
| 2026-05-06 13:18 | 21.93232 | 39.29501 | 10938 ft | 322 kts | 18° |
| 2026-05-06 13:18 | 21.95478 | 39.29770 | 11288 ft | 333 kts | 349° |
| 2026-05-06 13:18 | 21.97715 | 39.29006 | 11584 ft | 346 kts | 335° |
| 2026-05-06 13:19 | 21.99979 | 39.27944 | 11778 ft | 363 kts | 327° |
| 2026-05-06 13:19 | 22.02020 | 39.26292 | 12132 ft | 370 kts | 314° |
| 2026-05-06 13:19 | 22.03850 | 39.24337 | 12725 ft | 372 kts | 310° |
| 2026-05-06 13:19 | 22.05630 | 39.22295 | 13317 ft | 375 kts | 309° |
| 2026-05-06 13:20 | 22.07403 | 39.20216 | 13871 ft | 379 kts | 309° |
| 2026-05-06 13:20 | 22.09191 | 39.18114 | 14391 ft | 382 kts | 309° |
| 2026-05-06 13:20 | 22.11001 | 39.15994 | 14896 ft | 386 kts | 309° |
| 2026-05-06 13:20 | 22.12837 | 39.13854 | 15410 ft | 390 kts | 309° |
| 2026-05-06 13:21 | 22.14690 | 39.11702 | 15932 ft | 393 kts | 309° |
| 2026-05-06 13:21 | 22.16542 | 39.09554 | 16437 ft | 396 kts | 309° |
| 2026-05-06 13:21 | 22.18427 | 39.07371 | 16961 ft | 399 kts | 309° |
| 2026-05-06 13:21 | 22.20331 | 39.05167 | 17476 ft | 402 kts | 309° |
| 2026-05-06 13:22 | 22.22243 | 39.02952 | 18001 ft | 405 kts | 309° |
| 2026-05-06 13:22 | 22.24172 | 39.00719 | 18463 ft | 408 kts | 309° |
| 2026-05-06 13:22 | 22.26107 | 38.98478 | 18928 ft | 409 kts | 309° |
| 2026-05-06 13:22 | 22.28054 | 38.96222 | 19395 ft | 411 kts | 308° |
| 2026-05-06 13:23 | 22.30002 | 38.93963 | 19838 ft | 413 kts | 308° |
| 2026-05-06 13:23 | 22.31964 | 38.91687 | 20287 ft | 414 kts | 308° |
| 2026-05-06 13:23 | 22.33934 | 38.89402 | 20730 ft | 416 kts | 308° |
| 2026-05-06 13:23 | 22.35908 | 38.87109 | 21160 ft | 418 kts | 308° |
| 2026-05-06 13:24 | 22.37895 | 38.84801 | 21585 ft | 420 kts | 308° |
| 2026-05-06 13:24 | 22.39890 | 38.82482 | 22003 ft | 422 kts | 308° |
| 2026-05-06 13:24 | 22.41890 | 38.80156 | 22406 ft | 424 kts | 308° |
| 2026-05-06 13:24 | 22.43902 | 38.77816 | 22801 ft | 426 kts | 308° |
| 2026-05-06 13:25 | 22.45924 | 38.75463 | 23194 ft | 428 kts | 308° |
| 2026-05-06 13:25 | 22.47953 | 38.73100 | 23557 ft | 430 kts | 308° |
| 2026-05-06 13:25 | 22.49984 | 38.70733 | 23899 ft | 431 kts | 308° |
| 2026-05-06 13:25 | 22.52022 | 38.68359 | 24238 ft | 431 kts | 308° |
| 2026-05-06 13:26 | 22.54070 | 38.65972 | 24565 ft | 432 kts | 307° |
| 2026-05-06 13:26 | 22.56117 | 38.63583 | 24887 ft | 434 kts | 307° |
| 2026-05-06 13:26 | 22.58171 | 38.61186 | 25209 ft | 435 kts | 307° |
| 2026-05-06 13:26 | 22.60204 | 38.58813 | 25518 ft | 436 kts | 307° |
| 2026-05-06 13:27 | 22.62294 | 38.56371 | 25823 ft | 437 kts | 307° |
| 2026-05-06 13:27 | 22.64333 | 38.53987 | 26119 ft | 438 kts | 307° |
| 2026-05-06 13:27 | 22.66408 | 38.51562 | 26419 ft | 439 kts | 307° |
| 2026-05-06 13:27 | 22.68488 | 38.49129 | 26713 ft | 440 kts | 307° |
| 2026-05-06 13:28 | 22.70571 | 38.46690 | 26990 ft | 441 kts | 306° |
| 2026-05-06 13:28 | 22.72657 | 38.44247 | 27280 ft | 443 kts | 306° |
| 2026-05-06 13:28 | 22.74751 | 38.41794 | 27561 ft | 444 kts | 306° |
| 2026-05-06 13:28 | 22.76848 | 38.39335 | 27829 ft | 445 kts | 306° |
| 2026-05-06 13:29 | 22.78948 | 38.36872 | 28077 ft | 446 kts | 306° |
| 2026-05-06 13:29 | 22.81057 | 38.34398 | 28327 ft | 447 kts | 306° |
| 2026-05-06 13:29 | 22.83171 | 38.31917 | 28574 ft | 448 kts | 306° |
| 2026-05-06 13:29 | 22.85285 | 38.29433 | 28812 ft | 449 kts | 306° |
| 2026-05-06 13:30 | 22.87409 | 38.26937 | 29047 ft | 450 kts | 306° |
| 2026-05-06 13:30 | 22.89533 | 38.24440 | 29339 ft | 450 kts | 306° |
| 2026-05-06 13:30 | 22.91650 | 38.21952 | 29720 ft | 448 kts | 306° |
| 2026-05-06 13:30 | 22.93758 | 38.19474 | 30062 ft | 446 kts | 305° |
| 2026-05-06 13:31 | 22.95862 | 38.16998 | 30299 ft | 446 kts | 305° |
| 2026-05-06 13:31 | 22.97965 | 38.14519 | 30544 ft | 446 kts | 305° |
| 2026-05-06 13:31 | 23.00061 | 38.12048 | 30807 ft | 445 kts | 305° |
| 2026-05-06 13:31 | 23.02158 | 38.09575 | 31070 ft | 445 kts | 305° |
| 2026-05-06 13:32 | 23.04252 | 38.07104 | 31337 ft | 444 kts | 305° |
| 2026-05-06 13:32 | 23.06343 | 38.04636 | 31598 ft | 443 kts | 304° |
| 2026-05-06 13:32 | 23.08427 | 38.02175 | 31880 ft | 443 kts | 304° |
| 2026-05-06 13:32 | 23.10508 | 37.99716 | 32150 ft | 442 kts | 304° |
| 2026-05-06 13:33 | 23.12588 | 37.97257 | 32425 ft | 441 kts | 304° |
| 2026-05-06 13:33 | 23.14664 | 37.94802 | 32706 ft | 440 kts | 304° |
| 2026-05-06 13:33 | 23.16734 | 37.92353 | 32979 ft | 439 kts | 304° |
| 2026-05-06 13:33 | 23.18797 | 37.89911 | 33255 ft | 438 kts | 304° |
| 2026-05-06 13:34 | 23.20858 | 37.87469 | 33524 ft | 438 kts | 304° |
| 2026-05-06 13:34 | 23.22885 | 37.85066 | 33795 ft | 437 kts | 304° |
| 2026-05-06 13:34 | 23.24934 | 37.82636 | 34029 ft | 436 kts | 303° |
| 2026-05-06 13:34 | 23.26982 | 37.80206 | 34248 ft | 435 kts | 303° |
| 2026-05-06 13:35 | 23.29027 | 37.77779 | 34463 ft | 434 kts | 303° |
| 2026-05-06 13:35 | 23.31068 | 37.75355 | 34678 ft | 434 kts | 303° |
| 2026-05-06 13:35 | 23.33105 | 37.72936 | 34893 ft | 433 kts | 303° |
| 2026-05-06 13:35 | 23.35252 | 37.70609 | 35076 ft | 441 kts | 311° |
| 2026-05-06 13:36 | 23.37642 | 37.68496 | 35261 ft | 443 kts | 311° |
| 2026-05-06 13:36 | 23.40049 | 37.66397 | 35463 ft | 443 kts | 312° |
| 2026-05-06 13:36 | 23.42448 | 37.64306 | 35653 ft | 442 kts | 311° |
| 2026-05-06 13:36 | 23.44846 | 37.62211 | 35843 ft | 442 kts | 311° |
| 2026-05-06 13:37 | 23.46433 | 37.60822 | 35860 ft | 443 kts | 311° |
| 2026-05-06 13:37 | 23.52045 | 37.55891 | 35870 ft | 442 kts | 311° |
| 2026-05-06 13:38 | 23.56011 | 37.52398 | 35871 ft | 441 kts | 311° |
| 2026-05-06 13:38 | 23.60786 | 37.48183 | 35871 ft | 441 kts | 311° |
| 2026-05-06 13:39 | 23.65552 | 37.43974 | 35874 ft | 441 kts | 311° |
| 2026-05-06 13:39 | 23.70324 | 37.39755 | 35871 ft | 441 kts | 311° |
| 2026-05-06 13:40 | 23.75894 | 37.34824 | 35873 ft | 441 kts | 312° |
| 2026-05-06 13:40 | 23.79861 | 37.31310 | 35874 ft | 441 kts | 312° |
| 2026-05-06 13:41 | 23.84630 | 37.27082 | 35877 ft | 441 kts | 312° |
| 2026-05-06 13:41 | 23.89398 | 37.22851 | 35876 ft | 441 kts | 312° |
| 2026-05-06 13:42 | 23.94159 | 37.18621 | 35876 ft | 441 kts | 312° |
| 2026-05-06 13:42 | 23.98887 | 37.14417 | 35876 ft | 441 kts | 312° |
| 2026-05-06 13:43 | 24.03644 | 37.10182 | 35875 ft | 441 kts | 312° |
| 2026-05-06 13:43 | 24.08398 | 37.05947 | 35871 ft | 440 kts | 312° |
| 2026-05-06 13:44 | 24.13154 | 37.01704 | 35878 ft | 441 kts | 312° |
| 2026-05-06 13:44 | 24.17903 | 36.97465 | 35882 ft | 440 kts | 312° |
| 2026-05-06 13:45 | 24.22648 | 36.93224 | 35880 ft | 440 kts | 312° |
| 2026-05-06 13:45 | 24.29763 | 36.86859 | 35884 ft | 440 kts | 312° |
| 2026-05-06 13:46 | 24.34499 | 36.82615 | 35884 ft | 440 kts | 312° |
| 2026-05-06 13:46 | 24.39231 | 36.78371 | 35885 ft | 439 kts | 312° |
| 2026-05-06 13:47 | 24.43963 | 36.74123 | 35883 ft | 439 kts | 312° |
| 2026-05-06 13:47 | 24.48689 | 36.69875 | 35884 ft | 439 kts | 312° |
| 2026-05-06 13:48 | 24.53409 | 36.65629 | 35888 ft | 438 kts | 312° |
| 2026-05-06 13:48 | 24.58121 | 36.61386 | 35886 ft | 438 kts | 312° |
| 2026-05-06 13:49 | 24.62794 | 36.57107 | 35878 ft | 434 kts | 309° |
| 2026-05-06 13:49 | 24.67137 | 36.52576 | 35889 ft | 432 kts | 308° |
| 2026-05-06 13:50 | 24.71451 | 36.47961 | 35893 ft | 433 kts | 308° |
| 2026-05-06 13:50 | 24.75771 | 36.43359 | 35892 ft | 432 kts | 308° |
| 2026-05-06 13:51 | 24.80100 | 36.38764 | 35895 ft | 432 kts | 308° |
| 2026-05-06 13:51 | 24.84431 | 36.34172 | 35900 ft | 432 kts | 308° |
| 2026-05-06 13:52 | 24.88754 | 36.29584 | 35896 ft | 432 kts | 308° |
| 2026-05-06 13:52 | 24.93083 | 36.24986 | 35905 ft | 432 kts | 308° |
| 2026-05-06 13:53 | 24.97405 | 36.20391 | 35902 ft | 432 kts | 308° |
| 2026-05-06 13:53 | 25.01721 | 36.15797 | 35904 ft | 431 kts | 308° |
| 2026-05-06 13:54 | 25.06039 | 36.11195 | 35905 ft | 431 kts | 308° |
| 2026-05-06 13:54 | 25.10350 | 36.06597 | 35908 ft | 431 kts | 308° |
| 2026-05-06 13:55 | 25.14633 | 36.02024 | 35909 ft | 431 kts | 308° |
| 2026-05-06 13:55 | 25.18937 | 35.97424 | 35909 ft | 430 kts | 308° |
| 2026-05-06 13:56 | 25.23238 | 35.92822 | 35910 ft | 430 kts | 309° |
| 2026-05-06 13:56 | 25.27533 | 35.88222 | 35914 ft | 430 kts | 309° |
| 2026-05-06 13:57 | 25.31822 | 35.83623 | 35915 ft | 430 kts | 309° |
| 2026-05-06 13:57 | 25.36111 | 35.79020 | 35913 ft | 429 kts | 309° |
| 2026-05-06 13:58 | 25.40394 | 35.74418 | 35913 ft | 429 kts | 309° |
| 2026-05-06 13:58 | 25.44672 | 35.69816 | 35914 ft | 429 kts | 309° |
| 2026-05-06 13:59 | 25.48947 | 35.65213 | 35913 ft | 428 kts | 309° |
| 2026-05-06 13:59 | 25.53215 | 35.60613 | 35912 ft | 428 kts | 309° |
| 2026-05-06 14:00 | 25.57474 | 35.56017 | 35911 ft | 427 kts | 309° |
| 2026-05-06 14:00 | 25.61731 | 35.51420 | 35918 ft | 427 kts | 309° |
| 2026-05-06 14:01 | 25.65982 | 35.46824 | 35919 ft | 427 kts | 309° |
| 2026-05-06 14:01 | 25.70234 | 35.42220 | 35922 ft | 426 kts | 309° |
| 2026-05-06 14:02 | 25.74446 | 35.37657 | 35922 ft | 426 kts | 309° |
| 2026-05-06 14:02 | 25.78683 | 35.33061 | 35921 ft | 426 kts | 309° |
| 2026-05-06 14:03 | 25.82914 | 35.28467 | 35921 ft | 425 kts | 309° |
| 2026-05-06 14:03 | 25.87140 | 35.23873 | 35922 ft | 425 kts | 309° |
| 2026-05-06 14:04 | 25.91363 | 35.19277 | 35924 ft | 424 kts | 309° |
| 2026-05-06 14:04 | 25.95576 | 35.14687 | 35922 ft | 424 kts | 308° |
| 2026-05-06 14:05 | 25.99785 | 35.10098 | 35924 ft | 424 kts | 308° |
| 2026-05-06 14:05 | 26.03994 | 35.05510 | 35927 ft | 424 kts | 309° |
| 2026-05-06 14:06 | 26.08199 | 35.00922 | 35926 ft | 423 kts | 309° |
| 2026-05-06 14:06 | 26.12402 | 34.96334 | 35924 ft | 423 kts | 309° |
| 2026-05-06 14:07 | 26.16602 | 34.91745 | 35923 ft | 423 kts | 309° |
| 2026-05-06 14:07 | 26.20799 | 34.87153 | 35926 ft | 423 kts | 309° |
| 2026-05-06 14:08 | 26.24970 | 34.82583 | 35931 ft | 423 kts | 309° |
| 2026-05-06 14:08 | 26.29161 | 34.77987 | 35930 ft | 423 kts | 309° |
| 2026-05-06 14:09 | 26.33349 | 34.73389 | 35931 ft | 422 kts | 309° |
| 2026-05-06 14:09 | 26.37531 | 34.68794 | 35936 ft | 422 kts | 309° |
| 2026-05-06 14:10 | 26.41708 | 34.64198 | 35938 ft | 422 kts | 309° |
| 2026-05-06 14:10 | 26.45889 | 34.59592 | 35942 ft | 422 kts | 309° |
| 2026-05-06 14:11 | 26.50068 | 34.54985 | 35944 ft | 422 kts | 309° |
| 2026-05-06 14:11 | 26.54235 | 34.50385 | 35940 ft | 422 kts | 309° |
| 2026-05-06 14:12 | 26.58387 | 34.45797 | 35942 ft | 422 kts | 309° |
| 2026-05-06 14:12 | 26.62557 | 34.41184 | 35951 ft | 422 kts | 309° |